createdAt,value
2023-01-27T00:00:39.604Z,105.47
2023-01-27T00:03:22.282Z,95.33
2023-01-27T00:05:49.703Z,106.03
2023-01-27T00:08:17.955Z,106.77
2023-01-27T00:10:45.016Z,80.07
2023-01-27T00:13:29.406Z,92.83
2023-01-27T00:15:56.446Z,103.53
2023-01-27T00:18:24.019Z,88.47
2023-01-27T00:21:09.771Z,86.63
2023-01-27T00:23:55.832Z,96.03
2023-01-27T00:26:23.407Z,105.10
2023-01-27T00:28:50.589Z,98.23
2023-01-27T00:31:36.899Z,87.20
2023-01-27T00:34:11.552Z,87.17
2023-01-27T00:36:40.487Z,108.10
2023-01-27T00:41:35.399Z,112.30
2023-01-27T00:44:03.066Z,120.60
2023-01-27T00:46:30.119Z,117.40
2023-01-27T00:48:57.343Z,97.73
2023-01-27T00:51:24.479Z,96.03
2023-01-27T00:53:51.711Z,105.93
2023-01-27T00:56:18.895Z,92.40
2023-01-27T00:58:46.146Z,104.57
2023-01-27T01:01:15.651Z,105.03
2023-01-27T01:03:44.148Z,105.30
2023-01-27T01:06:13.123Z,109.53
2023-01-27T01:08:40.494Z,95.23
2023-01-27T01:11:09.446Z,92.90
2023-01-27T01:13:36.871Z,98.93
2023-01-27T01:16:13.033Z,96.90
2023-01-27T01:18:40.310Z,95.70
2023-01-27T01:21:07.715Z,96.23
2023-01-27T01:23:39.082Z,96.23
2023-01-27T01:26:06.345Z,84.47
2023-01-27T01:28:33.574Z,93.20
2023-01-27T01:31:26.505Z,78.27
2023-01-27T01:33:53.746Z,77.17
2023-01-27T01:36:21.658Z,81.37
2023-01-27T01:38:49.046Z,77.18
2023-01-27T01:41:19.888Z,77.00
2023-01-27T01:43:48.271Z,77.17
2023-01-27T01:46:15.475Z,60.80
2023-01-27T01:48:48.244Z,80.40
2023-01-27T01:51:28.871Z,78.70
2023-01-27T01:54:12.424Z,86.17
2023-01-27T01:56:45.443Z,86.57
2023-01-27T01:59:20.052Z,79.53
2023-01-27T02:01:47.482Z,91.07
2023-01-27T02:04:19.609Z,92.30
2023-01-27T02:06:56.061Z,84.03
2023-01-27T02:09:23.889Z,79.03
2023-01-27T02:11:51.638Z,87.77
2023-01-27T02:14:19.036Z,61.80
2023-01-27T02:16:46.982Z,81.93
2023-01-27T02:19:47.271Z,80.82
2023-01-27T02:22:24.810Z,79.60
2023-01-27T02:25:00.286Z,80.90
2023-01-27T02:27:27.231Z,86.43
2023-01-27T02:29:54.439Z,79.93
2023-01-27T02:32:27.125Z,87.07
2023-01-27T02:34:56.839Z,76.53
2023-01-27T02:37:24.671Z,76.47
2023-01-27T02:39:53.543Z,76.00
2023-01-27T02:42:20.634Z,66.22
2023-01-27T02:44:47.824Z,68.77
2023-01-27T02:47:14.776Z,74.07
2023-01-27T02:49:41.963Z,72.30
2023-01-27T02:52:08.874Z,68.23
2023-01-27T02:54:36.053Z,70.47
2023-01-27T02:57:02.997Z,74.63
2023-01-27T02:59:30.432Z,71.67
2023-01-27T03:01:57.353Z,71.50
2023-01-27T03:04:24.564Z,71.83
2023-01-27T03:06:51.520Z,66.57
2023-01-27T03:09:18.703Z,73.03
2023-01-27T03:12:04.271Z,69.27
2023-01-27T03:14:50.157Z,66.60
2023-01-27T03:17:35.880Z,70.60
2023-01-27T03:20:03.436Z,65.63
2023-01-27T03:22:30.275Z,69.33
2023-01-27T03:24:57.479Z,77.47
2023-01-27T03:27:24.396Z,73.67
2023-01-27T03:29:58.028Z,70.00
2023-01-27T03:32:27.333Z,70.80
2023-01-27T03:34:57.757Z,70.40
2023-01-27T03:37:44.504Z,64.00
2023-01-27T03:40:31.247Z,66.50
2023-01-27T03:43:17.417Z,79.00
2023-01-27T03:46:10.759Z,74.60
2023-01-27T03:48:38.103Z,68.63
2023-01-27T03:51:08.037Z,71.27
2023-01-27T03:53:35.819Z,67.80
2023-01-27T03:56:05.956Z,73.77
2023-01-27T03:58:35.878Z,67.47
2023-01-27T04:01:22.239Z,72.60
2023-01-27T04:04:08.700Z,63.83
2023-01-27T04:06:55.355Z,63.37
2023-01-27T04:09:29.382Z,60.10
2023-01-27T04:11:59.135Z,61.50
2023-01-27T04:14:32.048Z,66.00
2023-01-27T04:17:04.834Z,65.77
2023-01-27T04:19:32.487Z,62.93
2023-01-27T04:22:01.078Z,62.57
2023-01-27T04:24:28.830Z,67.35
2023-01-27T04:27:03.143Z,61.33
2023-01-27T04:29:32.739Z,67.23
2023-01-27T04:31:59.989Z,63.33
2023-01-27T04:34:28.163Z,66.50
2023-01-27T04:36:56.211Z,57.58
2023-01-27T04:39:23.572Z,68.87
2023-01-27T04:41:51.661Z,58.50
2023-01-27T04:44:21.803Z,60.60
2023-01-27T04:46:50.851Z,60.80
2023-01-27T04:49:18.632Z,64.95
2023-01-27T04:51:47.242Z,51.03
2023-01-27T04:54:14.559Z,60.83
2023-01-27T04:56:53.593Z,62.40
2023-01-27T04:59:20.457Z,55.78
2023-01-27T05:01:47.616Z,42.07
2023-01-27T05:04:14.475Z,58.07
2023-01-27T05:06:41.741Z,60.90
2023-01-27T05:09:08.703Z,60.17
2023-01-27T05:11:35.894Z,57.03
2023-01-27T05:14:02.708Z,59.67
2023-01-27T05:16:29.925Z,61.30
2023-01-27T05:18:56.923Z,52.83
2023-01-27T05:21:28.442Z,58.00
2023-01-27T05:23:55.381Z,59.00
2023-01-27T05:26:27.817Z,65.40
2023-01-27T05:28:57.881Z,46.40
2023-01-27T05:31:28.005Z,61.53
2023-01-27T05:33:56.356Z,53.13
2023-01-27T05:38:52.442Z,59.97
2023-01-27T05:41:20.562Z,56.93
2023-01-27T05:43:51.955Z,52.00
2023-01-27T05:46:21.853Z,49.80
2023-01-27T05:48:51.165Z,52.03
2023-01-27T05:51:20.071Z,58.67
2023-01-27T05:53:47.683Z,54.50
2023-01-27T05:56:17.382Z,43.73
2023-01-27T05:58:45.029Z,52.80
2023-01-27T06:01:21.458Z,51.40
2023-01-27T06:03:48.779Z,46.80
2023-01-27T06:06:20.201Z,53.30
2023-01-27T06:08:48.225Z,50.97
2023-01-27T06:11:17.035Z,47.72
2023-01-27T06:13:44.012Z,43.60
2023-01-27T06:16:13.940Z,45.20
2023-01-27T06:18:41.280Z,44.70
2023-01-27T06:21:10.232Z,45.53
2023-01-27T06:23:38.059Z,31.63
2023-01-27T06:26:12.001Z,42.58
2023-01-27T06:28:40.124Z,49.10
2023-01-27T06:31:22.512Z,46.05
2023-01-27T06:33:50.833Z,56.87
2023-01-27T06:36:20.738Z,50.90
2023-01-27T06:38:49.030Z,48.50
2023-01-27T06:41:16.335Z,44.15
2023-01-27T06:43:43.317Z,44.93
2023-01-27T06:46:10.605Z,55.17
2023-01-27T06:48:40.475Z,49.33
2023-01-27T06:51:07.792Z,51.00
2023-01-27T06:53:37.392Z,45.93
2023-01-27T06:56:05.534Z,54.00
2023-01-27T06:58:33.130Z,55.97
2023-01-27T07:01:00.596Z,54.93
2023-01-27T07:03:27.493Z,57.17
2023-01-27T07:05:54.813Z,53.50
2023-01-27T07:08:21.701Z,50.90
2023-01-27T07:10:48.899Z,49.70
2023-01-27T07:13:16.185Z,55.90
2023-01-27T07:15:43.461Z,48.50
2023-01-27T07:18:14.386Z,52.97
2023-01-27T07:20:41.938Z,49.40
2023-01-27T07:23:09.706Z,51.97
2023-01-27T07:25:36.987Z,48.43
2023-01-27T07:28:04.235Z,48.33
2023-01-27T07:30:33.963Z,58.20
2023-01-27T07:33:05.770Z,45.67
2023-01-27T07:35:33.294Z,48.03
2023-01-27T07:38:00.215Z,46.50
2023-01-27T07:40:27.402Z,50.03
2023-01-27T07:42:57.865Z,53.07
2023-01-27T07:45:25.187Z,47.60
2023-01-27T07:47:52.467Z,47.13
2023-01-27T07:50:21.691Z,42.97
2023-01-27T07:52:48.540Z,46.25
2023-01-27T07:55:15.796Z,46.07
2023-01-27T07:57:42.733Z,53.10
2023-01-27T08:00:10.723Z,54.93
2023-01-27T08:02:37.655Z,54.13
2023-01-27T08:05:05.120Z,51.30
2023-01-27T08:07:32.063Z,46.00
2023-01-27T08:09:59.472Z,56.33
2023-01-27T08:12:26.319Z,47.30
2023-01-27T08:14:53.564Z,45.87
2023-01-27T08:17:20.454Z,46.97
2023-01-27T08:19:50.673Z,41.30
2023-01-27T08:22:21.070Z,45.80
2023-01-27T08:24:49.301Z,46.03
2023-01-27T08:27:17.976Z,50.00
2023-01-27T08:29:45.397Z,43.85
2023-01-27T08:32:15.065Z,45.67
2023-01-27T08:34:42.495Z,34.87
2023-01-27T08:37:09.528Z,42.53
2023-01-27T08:39:36.781Z,59.07
2023-01-27T08:42:03.771Z,51.10
2023-01-27T08:44:30.948Z,48.17
2023-01-27T08:46:57.830Z,47.43
2023-01-27T08:49:25.168Z,37.17
2023-01-27T08:51:52.197Z,46.23
2023-01-27T08:54:19.400Z,43.87
2023-01-27T08:56:46.273Z,42.67
2023-01-27T08:59:13.409Z,42.73
2023-01-27T09:01:41.787Z,47.27
2023-01-27T09:04:10.494Z,45.58
2023-01-27T09:06:37.431Z,47.72
2023-01-27T09:09:11.942Z,47.03
2023-01-27T09:11:42.070Z,46.50
2023-01-27T09:14:10.353Z,48.23
2023-01-27T09:16:37.395Z,40.80
2023-01-27T09:19:04.598Z,48.70
2023-01-27T09:21:32.079Z,42.70
2023-01-27T09:23:59.388Z,40.97
2023-01-27T09:26:26.547Z,39.70
2023-01-27T09:28:53.972Z,42.63
2023-01-27T09:31:20.993Z,40.43
2023-01-27T09:33:48.226Z,39.97
2023-01-27T09:36:19.397Z,39.30
2023-01-27T09:38:58.025Z,50.70
2023-01-27T09:42:02.569Z,50.22
2023-01-27T09:44:55.272Z,45.23
2023-01-27T09:47:23.438Z,50.83
2023-01-27T09:50:16.798Z,43.90
2023-01-27T09:53:18.992Z,48.13
2023-01-27T09:56:04.129Z,45.90
2023-01-27T09:59:12.812Z,42.23
2023-01-27T10:01:40.016Z,47.67
2023-01-27T10:04:15.851Z,47.77
2023-01-27T10:06:45.613Z,47.30
2023-01-27T10:09:41.087Z,49.40
2023-01-27T10:12:34.537Z,54.10
2023-01-27T10:15:26.970Z,59.73
2023-01-27T10:18:15.337Z,49.80
2023-01-27T10:20:48.561Z,46.60
2023-01-27T10:23:36.981Z,57.00
2023-01-27T10:26:27.298Z,64.97
2023-01-27T10:29:05.888Z,52.77
2023-01-27T10:31:37.911Z,46.88
2023-01-27T10:34:26.732Z,49.60
2023-01-27T10:37:00.372Z,50.33
2023-01-27T10:39:44.192Z,38.83
2023-01-27T10:42:17.358Z,43.43
2023-01-27T10:44:44.506Z,46.40
2023-01-27T10:47:42.534Z,49.87
2023-01-27T10:50:17.084Z,42.45
2023-01-27T10:53:02.027Z,47.63
2023-01-27T10:55:51.624Z,58.87
2023-01-27T10:58:43.460Z,49.13
2023-01-27T11:01:22.753Z,42.27
2023-01-27T11:03:59.060Z,40.47
2023-01-27T11:06:31.765Z,38.57
2023-01-27T11:09:07.938Z,42.67
2023-01-27T11:11:44.795Z,43.00
2023-01-27T11:14:12.644Z,44.00
2023-01-27T11:16:43.081Z,39.63
2023-01-27T11:19:29.429Z,45.03
2023-01-27T11:22:07.794Z,41.17
2023-01-27T11:24:45.611Z,46.83
2023-01-27T11:27:53.114Z,44.87
2023-01-27T11:30:28.141Z,40.63
2023-01-27T11:32:58.329Z,36.73
2023-01-27T11:35:25.378Z,34.17
2023-01-27T11:37:58.269Z,42.00
2023-01-27T11:40:38.539Z,36.00
2023-01-27T11:43:05.889Z,36.83
2023-01-27T11:45:36.119Z,40.60
2023-01-27T11:48:07.998Z,59.60
2023-01-27T11:50:36.256Z,54.43
2023-01-27T11:53:28.467Z,38.30
2023-01-27T11:56:03.968Z,45.67
2023-01-27T11:58:49.406Z,41.97
2023-01-27T12:01:24.132Z,33.87
2023-01-27T12:04:04.697Z,37.20
2023-01-27T12:06:38.463Z,35.00
2023-01-27T12:09:05.692Z,35.63
2023-01-27T12:11:33.197Z,37.43
2023-01-27T12:14:02.760Z,35.70
2023-01-27T12:16:52.076Z,33.13
2023-01-27T12:19:32.123Z,34.13
2023-01-27T12:22:03.081Z,35.70
2023-01-27T12:24:37.638Z,43.77
2023-01-27T12:27:07.012Z,42.03
2023-01-27T12:29:43.202Z,49.10
2023-01-27T12:32:23.090Z,53.17
2023-01-27T12:34:56.602Z,67.50
2023-01-27T12:37:30.220Z,63.97
2023-01-27T12:40:03.829Z,36.57
2023-01-27T12:42:36.191Z,54.43
2023-01-27T12:45:30.118Z,49.20
2023-01-27T12:48:00.068Z,37.97
2023-01-27T12:50:33.226Z,42.73
2023-01-27T12:53:20.633Z,35.87
2023-01-27T12:56:10.112Z,45.57
2023-01-27T12:58:40.694Z,58.67
2023-01-27T13:01:37.544Z,51.40
2023-01-27T13:04:10.198Z,44.97
2023-01-27T13:06:47.601Z,37.10
2023-01-27T13:09:26.665Z,34.10
2023-01-27T13:11:57.250Z,34.13
2023-01-27T13:14:27.888Z,30.90
2023-01-27T13:16:58.502Z,33.80
2023-01-27T13:19:31.626Z,39.97
2023-01-27T13:21:59.999Z,32.60
2023-01-27T13:24:42.461Z,36.33
2023-01-27T13:27:17.841Z,38.10
2023-01-27T13:29:56.855Z,37.97
2023-01-27T13:32:28.441Z,35.83
2023-01-27T13:35:16.894Z,35.97
2023-01-27T13:37:52.698Z,36.70
2023-01-27T13:40:27.781Z,41.50
2023-01-27T13:43:06.055Z,47.33
2023-01-27T13:45:40.659Z,44.20
2023-01-27T13:48:24.673Z,41.70
2023-01-27T13:50:58.595Z,45.80
2023-01-27T13:53:25.888Z,46.00
2023-01-27T13:56:14.053Z,44.77
2023-01-27T13:58:59.777Z,47.80
2023-01-27T14:02:02.007Z,44.03
2023-01-27T14:05:26.016Z,45.77
2023-01-27T14:08:18.847Z,54.63
2023-01-27T14:10:57.131Z,51.67
2023-01-27T14:13:41.995Z,42.47
2023-01-27T14:16:31.754Z,44.63
2023-01-27T14:19:16.801Z,41.30
2023-01-27T14:21:51.974Z,45.40
2023-01-27T14:24:49.993Z,50.53
2023-01-27T14:27:23.495Z,58.60
2023-01-27T14:30:02.196Z,49.77
2023-01-27T14:35:10.046Z,52.60
2023-01-27T14:37:49.072Z,53.17
2023-01-27T14:40:29.405Z,51.22
2023-01-27T14:43:17.793Z,73.73
2023-01-27T14:46:13.650Z,48.33
2023-01-27T14:48:58.117Z,65.50
2023-01-27T14:51:50.728Z,41.77
2023-01-27T14:54:50.225Z,56.63
2023-01-27T14:57:37.547Z,53.50
2023-01-27T15:00:27.467Z,42.33
2023-01-27T15:03:32.958Z,56.17
2023-01-27T15:06:12.872Z,48.60
2023-01-27T15:08:45.716Z,55.77
2023-01-27T15:11:51.407Z,56.67
2023-01-27T15:14:54.488Z,49.40
2023-01-27T15:17:24.393Z,53.27
2023-01-27T15:20:23.603Z,48.63
2023-01-27T15:23:24.249Z,47.50
2023-01-27T15:25:55.482Z,46.97
2023-01-27T15:28:28.708Z,44.43
2023-01-27T15:31:15.290Z,51.67
2023-01-27T15:33:48.760Z,50.43
2023-01-27T15:36:27.470Z,43.57
2023-01-27T15:41:38.893Z,57.43
2023-01-27T15:44:25.371Z,59.37
2023-01-27T15:46:54.896Z,62.40
2023-01-27T15:49:35.416Z,55.43
2023-01-27T15:52:25.446Z,59.57
2023-01-27T15:54:55.924Z,48.63
2023-01-27T15:57:39.148Z,55.30
2023-01-27T16:00:23.959Z,55.73
2023-01-27T16:02:54.500Z,63.17
2023-01-27T16:05:30.317Z,58.17
2023-01-27T16:08:02.644Z,49.13
2023-01-27T16:10:33.988Z,43.63
2023-01-27T16:13:23.986Z,50.20
2023-01-27T16:16:19.329Z,52.70
2023-01-27T16:18:57.548Z,62.37
2023-01-27T16:21:57.587Z,62.95
2023-01-27T16:24:39.666Z,58.70
2023-01-27T16:27:08.274Z,49.80
2023-01-27T16:29:57.389Z,49.88
2023-01-27T16:32:31.011Z,54.70
2023-01-27T16:35:03.599Z,60.67
2023-01-27T16:37:37.608Z,59.43
2023-01-27T16:40:18.118Z,57.60
2023-01-27T16:42:54.163Z,51.83
2023-01-27T16:45:27.367Z,61.63
2023-01-27T16:48:06.474Z,51.40
2023-01-27T16:50:41.985Z,65.85
2023-01-27T16:53:21.098Z,50.27
2023-01-27T16:55:58.737Z,53.15
2023-01-27T16:58:39.898Z,59.33
2023-01-27T17:01:23.313Z,55.17
2023-01-27T17:03:56.940Z,58.25
2023-01-27T17:06:27.612Z,58.43
2023-01-27T17:08:54.961Z,61.97
2023-01-27T17:11:26.680Z,61.80
2023-01-27T17:14:21.245Z,63.67
2023-01-27T17:16:59.126Z,53.40
2023-01-27T17:19:33.243Z,57.27
2023-01-27T17:22:11.618Z,55.33
2023-01-27T17:24:49.939Z,58.30
2023-01-27T17:27:38.639Z,51.35
2023-01-27T17:30:24.157Z,54.55
2023-01-27T17:33:00.649Z,50.67
2023-01-27T17:35:34.054Z,60.50
2023-01-27T17:38:20.026Z,60.20
2023-01-27T17:40:49.491Z,65.07
2023-01-27T17:43:25.552Z,53.10
2023-01-27T17:46:06.077Z,50.07
2023-01-27T17:48:35.818Z,70.03
2023-01-27T17:51:03.107Z,63.43
2023-01-27T17:53:30.562Z,66.00
2023-01-27T17:55:57.900Z,61.73
2023-01-27T17:58:27.891Z,59.27
2023-01-27T18:00:56.558Z,57.70
2023-01-27T18:03:30.440Z,46.22
2023-01-27T18:05:57.870Z,61.73
2023-01-27T18:08:24.856Z,51.73
2023-01-27T18:10:52.164Z,55.13
2023-01-27T18:13:19.316Z,46.80
2023-01-27T18:15:51.866Z,57.60
2023-01-27T18:18:28.087Z,49.33
2023-01-27T18:21:01.349Z,54.13
2023-01-27T18:23:32.460Z,59.60
2023-01-27T18:26:08.620Z,58.07
2023-01-27T18:28:38.238Z,62.43
2023-01-27T18:31:15.106Z,61.10
2023-01-27T18:33:43.903Z,60.63
2023-01-27T18:38:51.008Z,52.57
2023-01-27T18:41:27.908Z,54.23
2023-01-27T18:44:01.036Z,63.57
2023-01-27T18:46:28.335Z,46.03
2023-01-27T18:48:55.723Z,51.37
2023-01-27T18:51:23.089Z,55.50
2023-01-27T18:53:50.183Z,49.77
2023-01-27T18:56:17.642Z,53.93
2023-01-27T18:58:44.545Z,51.50
2023-01-27T19:01:21.606Z,48.67
2023-01-27T19:03:50.932Z,51.00
2023-01-27T19:06:18.598Z,52.83
2023-01-27T19:08:45.520Z,46.10
2023-01-27T19:11:16.329Z,55.00
2023-01-27T19:13:44.481Z,45.20
2023-01-27T19:16:17.744Z,55.60
2023-01-27T19:18:45.448Z,64.50
2023-01-27T19:21:14.369Z,48.70
2023-01-27T19:23:44.589Z,52.70
2023-01-27T19:26:17.475Z,42.17
2023-01-27T19:28:47.258Z,56.73
2023-01-27T19:31:14.897Z,52.73
2023-01-27T19:33:44.139Z,55.10
2023-01-27T19:36:11.366Z,53.93
2023-01-27T19:38:38.266Z,47.33
2023-01-27T19:41:05.704Z,52.57
2023-01-27T19:43:32.595Z,51.83
2023-01-27T19:45:59.873Z,56.63
2023-01-27T19:48:26.930Z,50.13
2023-01-27T19:50:54.699Z,59.17
2023-01-27T19:53:21.641Z,50.60
2023-01-27T19:55:49.611Z,78.80
2023-01-27T19:58:25.595Z,61.23
2023-01-27T20:00:54.250Z,56.87
2023-01-27T20:03:23.115Z,52.13
2023-01-27T20:08:20.067Z,56.93
2023-01-27T20:10:48.131Z,57.33
2023-01-27T20:13:17.276Z,59.90
2023-01-27T20:15:45.332Z,58.20
2023-01-27T20:18:16.678Z,62.43
2023-01-27T20:20:44.843Z,59.20
2023-01-27T20:23:13.752Z,65.13
2023-01-27T20:28:08.219Z,72.07
2023-01-27T20:30:35.465Z,43.87
2023-01-27T20:33:03.765Z,51.50
2023-01-27T20:37:58.560Z,53.20
2023-01-27T20:40:28.363Z,53.57
2023-01-27T20:42:55.300Z,50.40
2023-01-27T20:45:23.247Z,55.93
2023-01-27T20:47:51.921Z,59.33
2023-01-27T20:52:48.738Z,58.50
2023-01-27T20:55:17.919Z,59.77
2023-01-27T20:57:45.760Z,60.10
2023-01-27T21:00:21.005Z,59.10
2023-01-27T21:02:48.699Z,65.37
2023-01-27T21:05:16.430Z,65.10
2023-01-27T21:07:43.670Z,68.10
2023-01-27T21:10:11.670Z,49.03
2023-01-27T21:12:38.748Z,51.00
2023-01-27T21:15:09.917Z,52.53
2023-01-27T21:17:37.493Z,52.07
2023-01-27T21:20:05.554Z,50.67
2023-01-27T21:22:34.579Z,50.90
2023-01-27T21:25:02.054Z,52.57
2023-01-27T21:27:29.030Z,50.43
2023-01-27T21:29:56.285Z,52.87
2023-01-27T21:32:23.231Z,51.23
2023-01-27T21:34:50.432Z,57.80
2023-01-27T21:37:17.553Z,45.27
2023-01-27T21:39:44.770Z,44.07
2023-01-27T21:42:14.359Z,51.87
2023-01-27T21:45:00.039Z,54.77
2023-01-27T21:47:27.385Z,42.13
2023-01-27T21:50:00.601Z,49.17
2023-01-27T21:52:43.078Z,47.13
2023-01-27T21:55:16.741Z,46.87
2023-01-27T21:57:45.930Z,48.63
2023-01-27T22:00:14.623Z,46.77
2023-01-27T22:02:42.217Z,45.50
2023-01-27T22:05:11.403Z,43.73
2023-01-27T22:10:08.002Z,56.10
2023-01-27T22:12:34.915Z,52.57
2023-01-27T22:15:02.496Z,54.93
2023-01-27T22:17:29.422Z,52.53
2023-01-27T22:19:56.633Z,53.13
2023-01-27T22:22:23.561Z,48.77
2023-01-27T22:24:50.785Z,37.00
2023-01-27T22:27:17.670Z,50.13
2023-01-27T22:29:44.862Z,48.60
2023-01-27T22:32:11.823Z,45.30
2023-01-27T22:34:38.993Z,49.77
2023-01-27T22:37:06.123Z,50.63
2023-01-27T22:39:33.853Z,53.73
2023-01-27T22:42:00.824Z,46.60
2023-01-27T22:44:28.035Z,55.60
2023-01-27T22:46:54.964Z,51.17
2023-01-27T22:49:22.180Z,51.93
2023-01-27T22:51:49.114Z,51.57
2023-01-27T22:54:16.379Z,48.40
2023-01-27T22:56:43.403Z,49.10
2023-01-27T22:59:13.991Z,49.20
2023-01-27T23:01:40.946Z,48.27
2023-01-27T23:04:10.566Z,44.27
2023-01-27T23:06:39.066Z,48.40
2023-01-27T23:09:06.209Z,51.65
2023-01-27T23:11:33.325Z,50.23
2023-01-27T23:14:01.766Z,56.40
2023-01-27T23:16:28.821Z,48.20
2023-01-27T23:18:56.068Z,48.37
2023-01-27T23:21:22.997Z,52.13
2023-01-27T23:23:51.099Z,48.53
2023-01-27T23:26:18.035Z,46.80
2023-01-27T23:28:45.301Z,45.50
2023-01-27T23:31:13.448Z,48.80
2023-01-27T23:33:42.543Z,51.67
2023-01-27T23:36:10.647Z,48.35
2023-01-27T23:38:38.329Z,45.13
2023-01-27T23:41:08.390Z,40.60
2023-01-27T23:43:35.515Z,46.77
2023-01-27T23:46:02.500Z,50.77
2023-01-27T23:48:29.996Z,44.13
2023-01-27T23:50:56.939Z,46.47
2023-01-27T23:53:24.250Z,45.57
2023-01-27T23:55:58.768Z,43.80
2023-01-27T23:58:27.625Z,47.87
